Time;durP1;ratioP1;P1;durP2;ratioP2;P2;SDS_P1;SDS_P2;PMS_P1;PMS_P2;Temp;Humidity;BMP_temperature;BMP_pressure;BME280_temperature;BME280_humidity;BME280_pressure;Samples;Min_cycle;Max_cycle;Signal;HPM_P1;HPM_P2
2022/03/19 00:02:00;;;;;;;27.60;26.57;;;21.40;45.80;;;;;;5094950;28;20474;-50
2022/03/19 00:04:27;;;;;;;27.00;25.70;;;21.40;45.80;;;;;;5094847;28;20539;-52
2022/03/19 00:06:54;;;;;;;26.70;25.70;;;21.40;45.80;;;;;;5094938;28;20446;-52
2022/03/19 00:09:21;;;;;;;26.90;25.90;;;21.40;45.80;;;;;;5094726;28;20442;-51
2022/03/19 00:11:48;;;;;;;26.57;25.57;;;21.50;45.70;;;;;;5094645;28;20441;-52
2022/03/19 00:14:15;;;;;;;26.97;25.97;;;21.50;45.60;;;;;;5094819;28;20790;-51
2022/03/19 00:16:43;;;;;;;28.70;27.60;;;21.50;45.50;;;;;;5094835;28;20445;-57
2022/03/19 00:19:10;;;;;;;27.20;26.20;;;21.50;45.40;;;;;;5094252;28;21069;-57
2022/03/19 00:21:38;;;;;;;26.40;25.40;;;21.50;45.40;;;;;;5094239;28;20481;-57
2022/03/19 00:24:06;;;;;;;25.10;24.10;;;21.50;45.40;;;;;;5094363;28;20474;-56
2022/03/19 00:26:33;;;;;;;25.87;24.87;;;21.50;45.90;;;;;;5094657;28;20454;-56
2022/03/19 00:29:00;;;;;;;24.87;23.97;;;21.50;45.40;;;;;;5094114;28;20451;-52
2022/03/19 00:31:27;;;;;;;25.17;24.27;;;21.40;45.50;;;;;;5094516;28;20446;-54
2022/03/19 00:33:55;;;;;;;25.67;24.63;;;21.40;45.80;;;;;;5094421;28;20519;-51
2022/03/19 00:36:22;;;;;;;25.30;24.30;;;21.30;45.90;;;;;;5094711;28;20442;-53
2022/03/19 00:38:49;;;;;;;24.67;23.77;;;21.30;45.90;;;;;;5094015;28;20439;-53
2022/03/19 00:41:16;;;;;;;25.10;24.10;;;21.20;45.90;;;;;;5094409;28;20487;-57
2022/03/19 00:43:43;;;;;;;26.27;25.27;;;21.20;46.00;;;;;;5094163;28;20473;-56
2022/03/19 00:46:10;;;;;;;24.77;23.87;;;21.30;46.00;;;;;;5094334;28;20446;-56
2022/03/19 00:48:37;;;;;;;25.23;24.23;;;21.30;46.00;;;;;;5093708;28;20447;-54
2022/03/19 00:51:05;;;;;;;25.27;24.37;;;21.40;45.90;;;;;;5094198;28;20443;-51
2022/03/19 00:53:31;;;;;;;26.40;25.40;;;21.40;45.80;;;;;;5094047;28;20459;-52
2022/03/19 00:55:58;;;;;;;25.47;24.47;;;21.40;45.80;;;;;;5092995;28;20442;-51
2022/03/19 00:58:25;;;;;;;24.73;23.83;;;21.40;45.80;;;;;;5093528;28;20454;-55
2022/03/19 01:00:52;;;;;;;26.63;25.53;;;21.30;45.80;;;;;;5093910;28;20439;-52
2022/03/19 01:03:18;;;;;;;25.23;24.30;;;21.40;45.80;;;;;;5093580;28;20478;-53
2022/03/19 01:05:45;;;;;;;25.30;24.30;;;21.40;45.80;;;;;;5093883;28;20446;-52
2022/03/19 01:08:13;;;;;;;25.20;24.30;;;21.30;45.90;;;;;;5093366;28;20470;-52
2022/03/19 01:10:40;;;;;;;25.57;24.57;;;21.20;46.00;;;;;;5093808;28;20454;-51
2022/03/19 01:13:08;;;;;;;26.40;25.40;;;21.30;46.10;;;;;;5093856;28;20878;-52
2022/03/19 01:15:35;;;;;;;25.23;24.33;;;21.30;46.10;;;;;;5093549;28;20443;-51
2022/03/19 01:18:02;;;;;;;24.90;24.00;;;21.30;46.00;;;;;;5093227;28;20473;-53
2022/03/19 01:20:30;;;;;;;25.60;24.60;;;21.30;46.00;;;;;;5093710;28;20455;-51
2022/03/19 01:22:57;;;;;;;25.07;24.00;;;21.40;46.00;;;;;;5093511;28;20535;-51
2022/03/19 01:25:25;;;;;;;24.83;23.83;;;21.40;45.90;;;;;;5093419;28;20485;-53
2022/03/19 01:27:52;;;;;;;25.40;24.50;;;21.30;45.90;;;;;;5093066;28;20930;-52
2022/03/19 01:30:22;;;;;;;24.97;24.07;;;21.30;45.90;;;;;;5092704;28;20443;-51
2022/03/19 01:32:50;;;;;;;25.17;24.27;;;21.30;45.90;;;;;;5093343;28;20533;-51
2022/03/19 01:35:18;;;;;;;25.70;24.70;;;21.40;46.50;;;;;;5093128;28;20463;-51
2022/03/19 01:37:45;;;;;;;25.00;24.00;;;21.30;45.90;;;;;;5093138;28;20451;-51
2022/03/19 01:40:13;;;;;;;24.93;24.03;;;21.30;46.10;;;;;;5092877;28;20497;-53
2022/03/19 01:42:44;;;;;;;25.30;24.27;;;21.30;46.10;;;;;;5093011;28;20876;-52
2022/03/19 01:45:12;;;;;;;25.50;24.60;;;21.30;46.00;;;;;;5092999;28;21011;-52
2022/03/19 01:47:38;;;;;;;25.77;24.77;;;21.30;46.60;;;;;;5092874;28;20929;-52
2022/03/19 01:50:06;;;;;;;26.60;25.60;;;21.20;46.10;;;;;;5092694;28;20443;-51
2022/03/19 01:52:34;;;;;;;25.30;24.40;;;21.20;46.20;;;;;;5092865;28;20500;-52
2022/03/19 01:55:01;;;;;;;26.40;25.40;;;21.20;46.20;;;;;;5092786;28;20473;-52
2022/03/19 01:57:33;;;;;;;26.00;25.00;;;21.20;46.20;;;;;;5092700;28;20490;-52
2022/03/19 02:00:03;;;;;;;25.97;24.97;;;21.20;46.10;;;;;;5092553;28;20447;-51
2022/03/19 02:02:29;;;;;;;24.77;23.87;;;21.30;46.10;;;;;;5092847;28;20507;-53
2022/03/19 02:04:57;;;;;;;25.47;24.47;;;21.20;46.10;;;;;;5092564;28;20989;-51
2022/03/19 02:07:24;;;;;;;25.20;24.20;;;21.30;46.10;;;;;;5092330;28;20454;-51
2022/03/19 02:09:51;;;;;;;25.43;24.53;;;21.20;46.10;;;;;;5092356;28;21055;-53
2022/03/19 02:12:18;;;;;;;23.60;22.80;;;21.20;46.10;;;;;;5092545;28;20441;-51
2022/03/19 02:14:47;;;;;;;25.57;24.40;;;21.20;46.10;;;;;;5092449;28;20473;-51
2022/03/19 02:17:15;;;;;;;25.77;24.77;;;21.20;46.20;;;;;;5092479;28;20819;-51
2022/03/19 02:19:49;;;;;;;24.70;23.80;;;21.20;46.20;;;;;;5092163;28;20450;-56
2022/03/19 02:22:16;;;;;;;25.17;24.27;;;21.20;46.20;;;;;;5092290;28;20523;-51
2022/03/19 02:27:40;;;;;;;25.20;24.20;;;21.20;46.20;;;;;;5049553;28;20781;-51
2022/03/19 02:30:10;;;;;;;24.90;24.00;;;21.20;46.20;;;;;;5081632;28;20438;-51
2022/03/19 02:32:39;;;;;;;25.73;24.70;;;21.20;46.10;;;;;;5091861;28;20446;-51
2022/03/19 02:35:06;;;;;;;26.97;25.97;;;21.20;46.10;;;;;;5092056;28;20459;-52
2022/03/19 02:37:44;;;;;;;25.33;24.23;;;21.20;46.20;;;;;;5092142;28;20933;-52
2022/03/19 02:40:14;;;;;;;25.47;24.47;;;21.20;46.10;;;;;;5091964;28;20450;-52
2022/03/19 02:42:41;;;;;;;25.00;24.00;;;21.20;46.10;;;;;;5092026;28;20478;-53
2022/03/19 02:45:09;;;;;;;24.50;23.60;;;21.20;46.20;;;;;;5091752;28;20455;-52
2022/03/19 02:47:56;;;;;;;24.97;24.03;;;21.10;46.20;;;;;;5091867;28;20450;-51
2022/03/19 02:50:24;;;;;;;25.00;24.03;;;21.10;46.20;;;;;;5091719;28;20447;-51
2022/03/19 02:52:51;;;;;;;24.50;23.60;;;21.10;46.40;;;;;;5091943;28;20443;-54
2022/03/19 02:55:19;;;;;;;25.27;24.27;;;21.10;46.20;;;;;;5091796;28;20471;-52
2022/03/19 02:57:46;;;;;;;25.10;24.20;;;21.10;46.30;;;;;;5091659;28;20930;-51
2022/03/19 03:00:14;;;;;;;25.20;24.27;;;21.10;46.20;;;;;;5091554;28;20831;-51
2022/03/19 03:02:41;;;;;;;25.60;24.60;;;21.20;46.20;;;;;;5091672;28;20490;-51
2022/03/19 03:05:08;;;;;;;26.17;25.27;;;21.20;46.10;;;;;;5093023;28;20853;-54
2022/03/19 03:07:34;;;;;;;25.53;24.63;;;21.20;46.10;;;;;;5093069;28;20453;-54
2022/03/19 03:10:01;;;;;;;26.23;25.23;;;21.20;46.10;;;;;;5093337;28;20836;-53
2022/03/19 03:12:29;;;;;;;25.67;24.67;;;21.10;46.10;;;;;;5093754;28;20438;-57
2022/03/19 03:14:56;;;;;;;26.00;25.00;;;21.10;46.20;;;;;;5094086;28;20838;-55
2022/03/19 03:17:23;;;;;;;25.30;24.30;;;21.10;46.30;;;;;;5093231;28;20473;-57
2022/03/19 03:19:51;;;;;;;25.90;24.90;;;21.10;46.20;;;;;;5095319;28;20442;-55
2022/03/19 03:22:17;;;;;;;26.80;25.90;;;21.10;46.30;;;;;;5097659;28;20895;-58
2022/03/19 03:24:44;;;;;;;25.30;24.40;;;21.10;46.30;;;;;;5097626;28;20492;-54
2022/03/19 03:27:11;;;;;;;25.53;24.53;;;21.10;46.30;;;;;;5097125;28;20469;-56
2022/03/19 03:29:39;;;;;;;25.03;24.13;;;21.10;46.30;;;;;;5096931;28;20465;-56
2022/03/19 03:32:07;;;;;;;26.50;25.40;;;21.10;46.20;;;;;;5098003;28;20438;-54
2022/03/19 03:34:33;;;;;;;25.70;24.77;;;21.10;46.20;;;;;;5097544;28;20469;-53
2022/03/19 03:37:00;;;;;;;25.13;24.23;;;21.20;46.10;;;;;;5097221;28;20484;-55
2022/03/19 03:39:27;;;;;;;26.77;25.67;;;21.10;46.10;;;;;;5096832;28;20446;-56
2022/03/19 03:41:54;;;;;;;26.20;25.20;;;21.00;46.20;;;;;;5096709;28;20813;-55
2022/03/19 03:44:20;;;;;;;25.60;24.60;;;21.00;46.20;;;;;;5097343;28;20463;-53
2022/03/19 03:46:49;;;;;;;27.40;26.40;;;21.00;46.20;;;;;;5097262;28;20841;-54
2022/03/19 03:49:15;;;;;;;26.77;25.77;;;21.00;46.20;;;;;;5096370;28;20469;-52
2022/03/19 03:51:42;;;;;;;26.17;25.13;;;21.00;46.30;;;;;;5097437;28;20439;-55
2022/03/19 03:54:09;;;;;;;25.43;24.47;;;21.00;46.30;;;;;;5096780;28;20489;-54
2022/03/19 03:56:36;;;;;;;25.70;24.80;;;21.10;46.40;;;;;;5096530;28;20446;-51
2022/03/19 03:59:03;;;;;;;26.30;25.30;;;21.00;46.30;;;;;;5096329;28;20447;-52
2022/03/19 04:01:30;;;;;;;25.70;24.80;;;21.00;46.30;;;;;;5096749;28;20452;-52
2022/03/19 04:03:58;;;;;;;24.97;24.00;;;21.00;46.40;;;;;;5096473;28;20557;-56
2022/03/19 04:06:25;;;;;;;25.97;25.00;;;21.00;46.90;;;;;;5096256;28;20449;-58
2022/03/19 04:08:51;;;;;;;26.17;25.17;;;21.10;46.40;;;;;;5096067;28;20453;-55
2022/03/19 04:11:18;;;;;;;25.30;24.40;;;21.10;46.40;;;;;;5095984;28;20443;-54
2022/03/19 04:13:45;;;;;;;26.07;25.17;;;21.20;46.40;;;;;;5095846;28;20822;-56
2022/03/19 04:16:12;;;;;;;26.00;24.80;;;21.20;46.30;;;;;;5095598;28;20450;-58
2022/03/19 04:18:38;;;;;;;25.90;24.90;;;21.30;46.10;;;;;;5095411;28;20533;-55
2022/03/19 04:21:06;;;;;;;26.20;25.10;;;21.40;46.10;;;;;;5095538;28;20453;-56
2022/03/19 04:23:33;;;;;;;24.93;24.03;;;21.40;45.90;;;;;;5095603;28;20489;-54
2022/03/19 04:26:02;;;;;;;26.00;25.10;;;21.40;45.80;;;;;;5096121;28;20450;-53
2022/03/19 04:28:28;;;;;;;24.87;23.97;;;21.50;45.70;;;;;;5095308;28;20508;-55
2022/03/19 04:30:55;;;;;;;25.50;24.60;;;21.50;45.60;;;;;;5095071;28;20443;-55
2022/03/19 04:33:22;;;;;;;27.03;25.93;;;21.40;45.70;;;;;;5095385;28;20439;-54
2022/03/19 04:38:34;;;;;;;25.00;24.03;;;21.40;45.70;;;;;;5095436;28;20799;-55
2022/03/19 04:41:01;;;;;;;26.00;25.10;;;21.40;45.70;;;;;;5095257;28;20438;-57
2022/03/19 04:43:28;;;;;;;24.77;23.87;;;21.40;45.80;;;;;;5095549;28;20482;-53
2022/03/19 04:45:55;;;;;;;24.87;23.97;;;21.40;45.90;;;;;;5095185;28;20744;-57
2022/03/19 04:48:21;;;;;;;24.60;23.70;;;21.30;45.90;;;;;;5094474;28;20443;-53
2022/03/19 04:50:48;;;;;;;25.77;24.77;;;21.30;45.90;;;;;;5095271;28;20813;-55
2022/03/19 04:53:15;;;;;;;25.00;24.10;;;21.30;45.90;;;;;;5095033;28;20438;-56
2022/03/19 04:55:43;;;;;;;26.03;24.93;;;21.30;45.90;;;;;;5095153;28;20973;-54
2022/03/19 04:58:10;;;;;;;24.77;23.77;;;21.20;46.00;;;;;;5094865;28;20446;-56
2022/03/19 05:00:38;;;;;;;27.87;26.77;;;21.20;46.00;;;;;;5095909;28;20834;-54
2022/03/19 05:03:06;;;;;;;27.07;26.07;;;21.20;46.10;;;;;;5095840;28;20475;-58
2022/03/19 05:05:33;;;;;;;26.53;25.63;;;21.10;46.20;;;;;;5094590;28;20471;-57
2022/03/19 05:08:00;;;;;;;28.40;27.30;;;21.10;46.30;;;;;;5094600;28;20442;-55
2022/03/19 05:13:13;;;;;;;28.60;27.50;;;21.00;46.40;;;;;;5095719;28;20414;-54
2022/03/19 05:15:40;;;;;;;27.30;26.30;;;20.90;46.40;;;;;;5096151;28;20472;-53
2022/03/19 05:18:06;;;;;;;27.33;26.33;;;20.80;46.50;;;;;;5095338;28;20950;-53
2022/03/19 05:20:33;;;;;;;27.80;26.80;;;20.80;46.60;;;;;;5094764;28;20447;-57
2022/03/19 05:23:00;;;;;;;26.90;25.90;;;20.80;46.70;;;;;;5094638;28;20484;-54
2022/03/19 05:25:27;;;;;;;29.97;28.87;;;20.80;46.80;;;;;;5094827;28;20557;-58
2022/03/19 05:27:54;;;;;;;27.70;26.70;;;20.80;46.80;;;;;;5094633;28;20439;-55
2022/03/19 05:30:22;;;;;;;30.03;29.03;;;20.80;46.80;;;;;;5095589;28;20442;-55
2022/03/19 05:32:50;;;;;;;30.23;29.23;;;20.80;46.90;;;;;;5096015;28;20480;-54
2022/03/19 05:35:18;;;;;;;29.07;28.07;;;20.80;46.80;;;;;;5095580;28;20455;-58
2022/03/19 05:37:45;;;;;;;30.80;29.70;;;20.80;46.90;;;;;;5094810;28;20454;-54
2022/03/19 05:40:12;;;;;;;31.50;30.40;;;20.80;46.80;;;;;;5095153;28;20454;-54
2022/03/19 05:42:40;;;;;;;29.40;28.30;;;20.80;46.80;;;;;;5095908;28;20446;-50
2022/03/19 05:45:09;;;;;;;28.33;27.33;;;20.90;47.10;;;;;;5096184;28;20466;-52
2022/03/19 05:47:39;;;;;;;30.23;29.10;;;21.00;47.30;;;;;;5099543;28;20450;-53
2022/03/19 05:50:07;;;;;;;32.17;30.63;;;21.10;47.20;;;;;;5098588;28;20449;-56
2022/03/19 05:52:36;;;;;;;29.50;28.40;;;21.10;47.10;;;;;;5099974;28;20442;-51
2022/03/19 05:55:03;;;;;;;28.77;27.67;;;21.20;47.10;;;;;;5093820;28;20474;-53
2022/03/19 05:57:31;;;;;;;28.73;27.73;;;21.20;47.00;;;;;;5093878;28;20541;-52
2022/03/19 05:59:58;;;;;;;30.67;29.47;;;21.30;47.40;;;;;;5095079;28;20884;-52
2022/03/19 06:02:25;;;;;;;30.13;28.97;;;21.30;47.50;;;;;;5096154;28;20446;-51
2022/03/19 06:04:53;;;;;;;28.80;27.80;;;21.30;47.60;;;;;;5095138;28;20497;-49
2022/03/19 06:07:20;;;;;;;28.73;27.53;;;21.30;47.90;;;;;;5093770;28;20493;-51
2022/03/19 06:09:47;;;;;;;28.67;27.57;;;21.30;48.00;;;;;;5095109;28;20439;-52
2022/03/19 06:12:14;;;;;;;28.63;27.63;;;21.30;48.30;;;;;;5097617;28;20450;-55
2022/03/19 06:14:41;;;;;;;29.47;28.37;;;21.30;48.60;;;;;;5096043;28;20455;-52
2022/03/19 06:17:08;;;;;;;29.80;28.60;;;21.30;48.90;;;;;;5095119;28;20443;-51
2022/03/19 06:19:34;;;;;;;29.40;28.30;;;21.30;49.20;;;;;;5096784;28;20492;-50
2022/03/19 06:22:03;;;;;;;30.33;29.17;;;21.30;49.30;;;;;;5095812;28;20813;-51
2022/03/19 06:24:30;;;;;;;28.03;26.93;;;21.30;49.40;;;;;;5095460;28;20487;-51
2022/03/19 06:26:57;;;;;;;26.27;25.27;;;21.30;49.50;;;;;;5093723;28;20533;-51
2022/03/19 06:29:23;;;;;;;28.50;27.40;;;21.20;49.70;;;;;;5093044;28;20470;-60
2022/03/19 06:31:50;;;;;;;31.67;29.40;;;21.20;49.80;;;;;;5093455;28;20447;-54
2022/03/19 06:34:17;;;;;;;28.27;27.17;;;21.20;50.10;;;;;;5094885;28;20466;-52
2022/03/19 06:39:30;;;;;;;28.80;27.70;;;21.10;50.30;;;;;;5096266;28;20936;-52
2022/03/19 06:41:57;;;;;;;29.63;28.43;;;21.10;50.40;;;;;;5095613;28;20450;-52
2022/03/19 06:44:24;;;;;;;29.73;28.43;;;21.00;50.40;;;;;;5094494;28;20499;-52
2022/03/19 06:46:51;;;;;;;31.00;29.70;;;21.00;50.50;;;;;;5093796;28;22059;-51
2022/03/19 06:49:18;;;;;;;30.43;29.13;;;21.00;50.70;;;;;;5092307;28;20442;-57
2022/03/19 06:51:45;;;;;;;30.50;29.30;;;20.90;50.80;;;;;;5092014;28;20835;-57
2022/03/19 06:54:11;;;;;;;30.20;29.10;;;20.90;50.70;;;;;;5091309;28;21373;-57
2022/03/19 06:56:40;;;;;;;30.30;29.20;;;20.90;50.80;;;;;;5091721;28;20450;-58
2022/03/19 06:59:06;;;;;;;30.43;29.23;;;20.90;51.20;;;;;;5091698;28;20465;-55
2022/03/19 07:01:36;;;;;;;30.37;29.10;;;20.90;51.30;;;;;;5091776;28;20451;-55
2022/03/19 07:04:04;;;;;;;29.10;27.93;;;20.90;51.50;;;;;;5091533;28;20486;-52
2022/03/19 07:06:31;;;;;;;28.17;27.07;;;21.00;51.70;;;;;;5091492;28;20865;-53
2022/03/19 07:08:57;;;;;;;29.27;27.97;;;21.00;51.70;;;;;;5091487;28;20447;-55
2022/03/19 07:11:24;;;;;;;30.37;29.00;;;21.00;51.70;;;;;;5091625;28;20442;-53
2022/03/19 07:13:52;;;;;;;30.00;28.80;;;21.10;51.70;;;;;;5091907;28;20484;-56
2022/03/19 07:16:19;;;;;;;28.80;27.70;;;21.20;51.60;;;;;;5091591;28;20439;-56
2022/03/19 07:18:46;;;;;;;32.00;30.80;;;21.20;51.70;;;;;;5090792;28;20461;-57
2022/03/19 07:21:15;;;;;;;30.10;28.80;;;21.30;51.70;;;;;;5091295;28;20884;-53
2022/03/19 07:23:42;;;;;;;30.37;29.27;;;21.40;51.70;;;;;;5091676;28;20504;-56
2022/03/19 07:26:09;;;;;;;28.47;27.43;;;21.40;51.70;;;;;;5092192;28;20530;-59
2022/03/19 07:28:36;;;;;;;29.00;27.90;;;21.50;51.60;;;;;;5092856;28;20445;-51
2022/03/19 07:31:04;;;;;;;30.77;29.57;;;21.60;51.80;;;;;;5093517;28;20450;-53
2022/03/19 07:33:34;;;;;;;29.53;28.43;;;21.60;50.90;;;;;;5093765;28;20470;-53
2022/03/19 07:36:01;;;;;;;31.20;30.00;;;21.60;50.90;;;;;;5093880;28;20462;-56
2022/03/19 07:38:28;;;;;;;27.77;26.73;;;21.60;50.80;;;;;;5092416;28;20438;-57
2022/03/19 07:43:38;;;;;;;27.63;26.53;;;21.60;50.90;;;;;;5073226;28;20478;-55
2022/03/19 07:46:07;;;;;;;27.17;26.07;;;21.60;51.20;;;;;;5073585;28;20930;-53
2022/03/19 07:48:33;;;;;;;29.40;28.20;;;21.60;51.00;;;;;;5071899;28;20447;-55
2022/03/19 07:51:00;;;;;;;29.13;27.93;;;21.80;50.60;;;;;;5072630;28;20452;-56
2022/03/19 07:53:27;;;;;;;31.80;30.27;;;22.00;49.50;;;;;;5072087;28;20446;-55
2022/03/19 07:55:55;;;;;;;31.93;30.37;;;22.00;48.30;;;;;;5072437;28;20451;-56
2022/03/19 07:58:21;;;;;;;31.47;30.17;;;21.90;47.00;;;;;;5071860;28;20440;-56
2022/03/19 08:00:49;;;;;;;32.90;31.60;;;21.90;46.20;;;;;;5071543;28;20950;-58
2022/03/19 08:03:17;;;;;;;31.57;29.97;;;21.90;45.30;;;;;;5070998;28;20463;-58
2022/03/19 08:05:44;;;;;;;32.50;30.90;;;21.80;44.70;;;;;;5082635;28;20478;-58
2022/03/19 08:08:12;;;;;;;31.87;30.50;;;21.70;44.50;;;;;;5094404;28;20810;-55
2022/03/19 08:10:40;;;;;;;31.40;30.00;;;21.70;44.10;;;;;;5095149;28;20499;-56
2022/03/19 08:13:08;;;;;;;32.40;30.90;;;21.70;43.70;;;;;;5095258;28;20442;-55
2022/03/19 08:15:39;;;;;;;31.00;29.40;;;21.60;42.50;;;;;;5094648;28;20465;-57
2022/03/19 08:18:06;;;;;;;30.97;29.60;;;21.50;41.30;;;;;;5094197;28;20525;-58
2022/03/19 08:20:34;;;;;;;34.87;33.27;;;21.30;39.40;;;;;;5093758;28;20454;-60
2022/03/19 08:23:01;;;;;;;31.77;30.30;;;21.10;39.40;;;;;;5084015;28;20816;-60
2022/03/19 08:25:28;;;;;;;33.87;32.40;;;21.00;39.80;;;;;;5094613;28;20841;-60
2022/03/19 08:27:57;;;;;;;31.17;29.80;;;20.80;40.50;;;;;;5094627;28;20523;-55
2022/03/19 08:30:23;;;;;;;30.63;29.40;;;20.80;43.80;;;;;;5079089;28;20867;-54
2022/03/19 08:32:50;;;;;;;31.30;29.90;;;20.50;42.90;;;;;;5095535;28;20871;-55
2022/03/19 08:35:17;;;;;;;31.00;29.57;;;20.40;42.10;;;;;;5094373;28;20466;-62
2022/03/19 08:37:45;;;;;;;32.53;30.73;;;20.50;41.20;;;;;;5094069;28;20449;-61
2022/03/19 08:40:15;;;;;;;32.80;31.40;;;20.50;42.20;;;;;;5093858;28;20449;-60
2022/03/19 08:42:43;;;;;;;32.70;31.40;;;20.60;43.10;;;;;;5094055;28;20456;-62
2022/03/19 08:45:10;;;;;;;34.50;32.90;;;20.60;41.30;;;;;;5093825;28;20482;-60
2022/03/19 08:47:37;;;;;;;33.80;32.40;;;20.60;41.50;;;;;;5093786;28;20458;-60
2022/03/19 08:50:04;;;;;;;34.70;33.10;;;20.60;40.50;;;;;;5093553;28;20442;-61
2022/03/19 08:52:32;;;;;;;35.63;33.97;;;20.60;40.80;;;;;;5094070;28;20458;-61
2022/03/19 08:55:01;;;;;;;36.17;34.47;;;20.50;41.20;;;;;;5093494;28;20465;-61
2022/03/19 08:57:28;;;;;;;33.90;32.37;;;20.60;42.80;;;;;;5094313;28;20546;-60
2022/03/19 08:59:55;;;;;;;35.10;33.70;;;20.60;43.50;;;;;;5093529;28;20453;-60
2022/03/19 09:02:22;;;;;;;29.57;28.37;;;20.60;42.50;;;;;;5093684;28;20818;-52
2022/03/19 09:04:49;;;;;;;32.03;30.73;;;20.60;43.80;;;;;;5094268;28;20479;-51
2022/03/19 09:07:17;;;;;;;30.60;29.40;;;20.50;44.30;;;;;;5093327;28;20447;-54
2022/03/19 09:09:44;;;;;;;30.97;29.77;;;20.50;44.60;;;;;;5093640;28;20447;-53
2022/03/19 09:12:12;;;;;;;31.83;30.63;;;20.50;45.00;;;;;;5093665;28;20446;-58
2022/03/19 09:14:39;;;;;;;31.53;30.13;;;20.50;45.30;;;;;;5093560;28;20485;-54
2022/03/19 09:17:06;;;;;;;32.13;30.90;;;20.50;45.50;;;;;;5092282;28;20946;-54
2022/03/19 09:19:33;;;;;;;30.90;29.63;;;20.50;45.80;;;;;;5093228;28;20447;-54
2022/03/19 09:22:00;;;;;;;29.10;28.10;;;20.40;45.90;;;;;;5093323;28;20454;-56
2022/03/19 09:24:27;;;;;;;30.13;28.93;;;20.40;46.00;;;;;;5093205;28;20565;-53
2022/03/19 09:26:53;;;;;;;29.37;28.17;;;20.40;46.20;;;;;;5093266;28;20884;-54
2022/03/19 09:29:21;;;;;;;30.97;29.70;;;20.40;46.20;;;;;;5092683;28;20438;-52
2022/03/19 09:31:48;;;;;;;30.10;28.90;;;20.40;46.40;;;;;;5093291;28;20447;-57
2022/03/19 09:34:15;;;;;;;29.70;28.60;;;20.40;46.50;;;;;;5092754;28;20459;-55
2022/03/19 09:36:46;;;;;;;29.70;28.50;;;20.40;46.60;;;;;;5093026;28;20450;-55
2022/03/19 09:39:15;;;;;;;30.67;29.47;;;20.40;46.70;;;;;;5092805;28;20554;-51
2022/03/19 09:41:43;;;;;;;29.90;28.70;;;20.40;46.90;;;;;;5093055;28;20816;-53
2022/03/19 09:44:11;;;;;;;28.73;27.63;;;20.40;47.00;;;;;;5092158;28;20478;-54
2022/03/19 09:46:41;;;;;;;29.30;28.10;;;20.50;47.60;;;;;;5092908;28;20446;-56
2022/03/19 09:49:08;;;;;;;29.47;28.37;;;20.70;47.70;;;;;;5092515;28;20486;-55
2022/03/19 09:51:39;;;;;;;27.17;26.17;;;21.10;47.70;;;;;;5092841;28;20446;-56
2022/03/19 09:54:06;;;;;;;29.20;27.90;;;21.40;47.10;;;;;;5092568;28;20529;-57
2022/03/19 09:56:34;;;;;;;30.17;28.97;;;21.70;46.60;;;;;;5092600;28;21114;-52
2022/03/19 09:59:01;;;;;;;29.40;28.20;;;22.00;46.00;;;;;;5092416;28;20447;-52
2022/03/19 10:01:29;;;;;;;29.10;27.93;;;22.20;45.60;;;;;;5092470;28;20457;-52
2022/03/19 10:04:01;;;;;;;29.53;28.30;;;22.40;45.40;;;;;;5092094;28;20513;-53
2022/03/19 10:09:19;;;;;;;30.30;29.10;;;22.70;45.40;;;;;;5092181;28;20437;-51
2022/03/19 10:11:49;;;;;;;31.83;30.53;;;22.80;45.40;;;;;;5092505;28;20515;-52
2022/03/19 10:14:21;;;;;;;31.23;29.93;;;22.90;45.30;;;;;;5092541;28;20458;-53
2022/03/19 10:16:51;;;;;;;30.73;29.40;;;23.00;46.00;;;;;;5092411;28;20572;-56
2022/03/19 10:19:19;;;;;;;33.27;31.97;;;23.00;46.50;;;;;;5092209;28;20538;-53
2022/03/19 10:21:46;;;;;;;33.43;32.00;;;23.00;46.60;;;;;;5092435;28;20458;-51
2022/03/19 10:24:24;;;;;;;33.37;32.07;;;23.10;46.70;;;;;;5091931;28;20467;-55
2022/03/19 10:26:51;;;;;;;33.80;32.50;;;23.10;46.70;;;;;;5092179;28;20888;-53
2022/03/19 10:29:27;;;;;;;32.47;31.08;;;23.20;46.50;;;;;;5091054;28;20440;-52
2022/03/19 10:32:00;;;;;;;32.00;30.60;;;23.20;46.20;;;;;;5092072;28;20201;-51
2022/03/19 10:34:30;;;;;;;34.20;32.53;;;23.20;45.20;;;;;;5091694;28;20463;-53
2022/03/19 10:36:57;;;;;;;33.13;31.73;;;23.20;45.10;;;;;;5091646;28;20442;-53
2022/03/19 10:39:26;;;;;;;32.25;31.05;;;23.20;45.40;;;;;;5091673;28;20525;-54
2022/03/19 10:41:55;;;;;;;28.27;27.17;;;23.20;45.40;;;;;;5090822;28;20513;-51
2022/03/19 10:44:24;;;;;;;32.20;31.00;;;23.20;45.20;;;;;;5091891;28;20699;-55
2022/03/19 10:46:53;;;;;;;33.77;32.37;;;23.20;45.10;;;;;;5092105;28;20439;-56
2022/03/19 10:49:21;;;;;;;32.93;31.40;;;23.20;45.10;;;;;;5091774;28;20449;-52
2022/03/19 10:51:51;;;;;;;32.30;31.00;;;23.30;45.10;;;;;;5091789;28;20449;-50
2022/03/19 10:54:18;;;;;;;32.67;31.40;;;23.30;45.00;;;;;;5091558;28;20462;-49
2022/03/19 10:56:47;;;;;;;29.17;28.00;;;23.20;44.80;;;;;;5091895;28;20804;-50
2022/03/19 10:59:15;;;;;;;33.63;32.23;;;23.20;44.70;;;;;;5091599;28;20446;-53
2022/03/19 11:01:42;;;;;;;31.40;30.13;;;23.20;44.70;;;;;;5091337;28;20442;-51
2022/03/19 11:04:11;;;;;;;31.40;30.20;;;23.30;44.60;;;;;;5091422;28;20574;-50
2022/03/19 11:06:39;;;;;;;33.47;32.13;;;23.20;44.60;;;;;;5091585;28;20830;-50
2022/03/19 11:09:10;;;;;;;33.60;32.27;;;23.20;44.50;;;;;;5091464;28;20450;-52
2022/03/19 11:11:42;;;;;;;32.00;30.70;;;23.20;44.40;;;;;;5091647;28;20938;-51
2022/03/19 11:14:11;;;;;;;31.13;29.83;;;23.20;44.40;;;;;;5091456;28;20557;-51
2022/03/19 11:16:38;;;;;;;33.00;31.70;;;23.20;44.60;;;;;;5091309;28;20439;-51
2022/03/19 11:19:05;;;;;;;31.70;30.40;;;23.20;44.60;;;;;;5091124;28;20781;-50
2022/03/19 11:21:33;;;;;;;29.13;27.83;;;23.20;44.60;;;;;;5091558;28;20465;-52
2022/03/19 11:24:13;;;;;;;31.83;30.53;;;23.20;44.50;;;;;;5091483;28;20459;-51
2022/03/19 11:26:40;;;;;;;30.90;29.70;;;23.20;44.40;;;;;;5091240;28;20872;-50
2022/03/19 11:29:08;;;;;;;30.57;29.37;;;23.30;44.40;;;;;;5091272;28;20446;-52
2022/03/19 11:31:35;;;;;;;30.70;29.60;;;23.30;44.30;;;;;;5090340;28;20434;-53
2022/03/19 11:34:17;;;;;;;34.63;33.23;;;23.40;44.20;;;;;;5091142;28;20470;-50
2022/03/19 11:36:57;;;;;;;31.97;30.67;;;23.50;43.90;;;;;;5091512;28;20495;-56
2022/03/19 11:39:25;;;;;;;32.10;30.90;;;23.50;43.40;;;;;;5091168;28;20442;-53
2022/03/19 11:41:52;;;;;;;30.70;29.50;;;23.70;43.20;;;;;;5094895;28;20446;-54
2022/03/19 11:44:20;;;;;;;30.60;29.40;;;24.10;43.30;;;;;;5095421;28;20462;-51
2022/03/19 11:46:57;;;;;;;31.67;30.37;;;25.20;42.50;;;;;;5095365;28;20959;-51
2022/03/19 11:49:52;;;;;;;31.33;29.83;;;26.80;40.10;;;;;;5095136;28;20533;-53
2022/03/19 11:52:39;;;;;;;33.70;32.40;;;28.10;37.60;;;;;;5095312;28;20459;-55
2022/03/19 11:55:10;;;;;;;31.57;30.27;;;29.00;35.90;;;;;;5094821;28;20655;-51
2022/03/19 11:57:55;;;;;;;32.50;31.17;;;29.80;34.50;;;;;;5095050;28;20841;-50
2022/03/19 12:00:23;;;;;;;33.70;32.40;;;30.50;33.50;;;;;;5095074;28;20861;-58
2022/03/19 12:03:04;;;;;;;31.80;30.30;;;31.10;32.70;;;;;;5095022;28;20448;-53
2022/03/19 12:05:32;;;;;;;30.50;29.27;;;32.60;32.00;;;;;;5094853;28;20492;-54
2022/03/19 12:08:06;;;;;;;31.87;30.57;;;33.80;30.50;;;;;;5094998;28;20446;-51
2022/03/19 12:10:38;;;;;;;31.73;30.53;;;34.60;29.40;;;;;;5095046;28;20634;-50
2022/03/19 12:13:22;;;;;;;32.97;31.70;;;35.30;28.80;;;;;;5094755;28;20287;-52
2022/03/19 12:15:49;;;;;;;31.75;30.58;;;35.80;28.00;;;;;;5094886;28;20207;-52
2022/03/19 12:18:32;;;;;;;32.53;31.30;;;36.00;27.30;;;;;;5094374;28;20192;-50
2022/03/19 12:21:01;;;;;;;31.10;29.90;;;36.20;26.60;;;;;;5094744;28;20736;-53
2022/03/19 12:23:28;;;;;;;32.45;31.25;;;36.70;26.40;;;;;;5094539;28;20200;-55
2022/03/19 12:26:02;;;;;;;32.13;30.83;;;36.80;26.10;;;;;;5094645;28;20216;-50
2022/03/19 12:28:29;;;;;;;31.33;30.13;;;36.90;26.00;;;;;;5094291;28;20295;-53
2022/03/19 12:31:04;;;;;;;33.97;32.47;;;36.90;25.90;;;;;;5094566;28;20204;-55
2022/03/19 12:33:31;;;;;;;31.50;30.35;;;37.00;25.60;;;;;;5094413;28;20666;-52
2022/03/19 12:35:58;;;;;;;35.95;34.60;;;37.10;25.50;;;;;;5094346;28;20218;-51
2022/03/19 12:38:32;;;;;;;34.17;32.85;;;37.10;25.40;;;;;;5093951;28;20272;-55
2022/03/19 12:43:44;;;;;;;36.63;35.22;;;37.20;25.10;;;;;;5094249;28;20222;-53
2022/03/19 12:46:11;;;;;;;35.83;34.42;;;37.10;25.10;;;;;;5094250;28;20246;-56
2022/03/19 12:48:39;;;;;;;33.90;32.60;;;37.10;25.00;;;;;;5093863;28;20207;-52
2022/03/19 12:51:07;;;;;;;33.30;32.00;;;37.10;25.00;;;;;;5093314;28;20197;-52
2022/03/19 12:53:36;;;;;;;32.95;31.65;;;37.20;25.00;;;;;;5093499;28;20656;-53